createdAt,value
2022-10-06T00:01:07.008Z,94345.19
2022-10-06T00:04:10.071Z,94348.16
2022-10-06T00:07:13.466Z,94343.44
2022-10-06T00:10:16.589Z,94348.59
2022-10-06T00:13:19.547Z,94343.88
2022-10-06T00:16:23.972Z,94347.22
2022-10-06T00:19:28.703Z,94350.88
2022-10-06T00:22:39.997Z,94345.75
2022-10-06T00:25:43.445Z,94346.84
2022-10-06T00:28:51.058Z,94358.91
2022-10-06T00:31:55.790Z,94347.56
2022-10-06T00:35:00.131Z,94348.25
2022-10-06T00:38:05.555Z,94355.50
2022-10-06T00:41:11.494Z,94350.72
2022-10-06T00:44:15.025Z,94358.06
2022-10-06T00:47:20.289Z,94357.97
2022-10-06T00:50:24.191Z,94354.56
2022-10-06T00:53:29.964Z,94353.06
2022-10-06T00:56:33.058Z,94354.06
2022-10-06T00:59:38.075Z,94352.13
2022-10-06T01:03:12.863Z,94352.56
2022-10-06T01:06:15.966Z,94350.28
2022-10-06T01:09:20.301Z,94351.41
2022-10-06T01:12:25.166Z,94348.13
2022-10-06T01:15:30.417Z,94346.53
2022-10-06T01:18:35.715Z,94351.22
2022-10-06T01:21:45.349Z,94353.59
2022-10-06T01:24:51.207Z,94346.47
2022-10-06T01:27:56.456Z,94348.59
2022-10-06T01:31:03.632Z,94358.66
2022-10-06T01:34:08.652Z,94351.00
2022-10-06T01:37:12.528Z,94351.28
2022-10-06T01:40:16.559Z,94352.41
2022-10-06T01:43:21.926Z,94351.31
2022-10-06T01:46:25.229Z,94351.78
2022-10-06T01:49:28.145Z,94350.94
2022-10-06T01:52:31.369Z,94352.31
2022-10-06T01:55:35.839Z,94350.84
2022-10-06T01:58:42.120Z,94353.41
2022-10-06T02:01:46.760Z,94345.47
2022-10-06T02:04:51.328Z,94348.00
2022-10-06T02:07:54.934Z,94341.75
2022-10-06T02:10:58.939Z,94346.13
2022-10-06T02:14:05.382Z,94340.66
2022-10-06T02:17:10.475Z,94342.22
2022-10-06T02:20:14.464Z,94328.41
2022-10-06T02:23:18.850Z,94335.63
2022-10-06T02:26:22.460Z,94328.94
2022-10-06T02:29:27.087Z,94330.00
2022-10-06T02:32:40.778Z,94334.00
2022-10-06T02:35:45.779Z,94320.66
2022-10-06T02:38:49.802Z,94323.34
2022-10-06T02:41:53.959Z,94316.50
2022-10-06T02:44:59.472Z,94320.75
2022-10-06T02:48:03.090Z,94308.72
2022-10-06T02:51:09.623Z,94312.81
2022-10-06T02:54:14.173Z,94305.91
2022-10-06T02:57:18.049Z,94310.16
2022-10-06T03:00:21.900Z,94307.28
2022-10-06T03:03:25.538Z,94314.59
2022-10-06T03:06:31.554Z,94316.44
2022-10-06T03:09:45.451Z,94317.84
2022-10-06T03:12:49.175Z,94305.72
2022-10-06T03:15:52.915Z,94308.22
2022-10-06T03:18:56.581Z,94311.28
2022-10-06T03:21:59.691Z,94307.19
2022-10-06T03:25:18.400Z,94308.03
2022-10-06T03:28:21.479Z,94306.03
2022-10-06T03:31:26.085Z,94301.94
2022-10-06T03:34:29.421Z,94301.84
2022-10-06T03:37:34.301Z,94290.16
2022-10-06T03:40:37.860Z,94289.03
2022-10-06T03:43:44.399Z,94293.38
2022-10-06T03:46:48.697Z,94290.41
2022-10-06T03:49:52.100Z,94290.00
2022-10-06T03:52:55.057Z,94289.16
2022-10-06T03:56:05.737Z,94291.19
2022-10-06T03:59:11.837Z,94296.06
2022-10-06T04:02:17.766Z,94284.09
2022-10-06T04:05:22.382Z,94289.66
2022-10-06T04:08:26.328Z,94289.25
2022-10-06T04:11:33.158Z,94295.66
2022-10-06T04:14:36.504Z,94279.09
2022-10-06T04:17:41.179Z,94280.91
2022-10-06T04:20:44.938Z,94292.19
2022-10-06T04:23:48.482Z,94285.22
2022-10-06T04:26:52.914Z,94285.53
2022-10-06T04:29:59.342Z,94289.34
2022-10-06T04:33:02.260Z,94289.94
2022-10-06T04:36:08.209Z,94283.84
2022-10-06T04:39:12.477Z,94278.47
2022-10-06T04:42:19.746Z,94282.91
2022-10-06T04:45:22.643Z,94283.38
2022-10-06T04:48:28.236Z,94266.03
2022-10-06T04:51:32.269Z,94272.75
2022-10-06T04:54:36.762Z,94279.81
2022-10-06T04:57:42.511Z,94270.72
2022-10-06T05:00:45.375Z,94263.59
2022-10-06T05:03:51.375Z,94263.38
2022-10-06T05:06:54.297Z,94264.72
2022-10-06T05:09:57.879Z,94269.38
2022-10-06T05:13:04.807Z,94257.47
2022-10-06T05:16:12.006Z,94261.84
2022-10-06T05:19:16.054Z,94267.22
2022-10-06T05:22:19.164Z,94266.31
2022-10-06T05:25:22.165Z,94257.09
2022-10-06T05:28:28.352Z,94257.41
2022-10-06T05:31:35.656Z,94263.47
2022-10-06T05:34:40.852Z,94262.00
2022-10-06T05:37:44.539Z,94259.06
2022-10-06T05:40:48.217Z,94249.53
2022-10-06T05:43:53.417Z,94254.06
2022-10-06T05:46:57.031Z,94246.19
2022-10-06T05:50:00.600Z,94240.28
2022-10-06T05:53:04.189Z,94242.50
2022-10-06T05:56:09.418Z,94238.25
2022-10-06T05:59:14.939Z,94237.16
2022-10-06T06:02:19.054Z,94235.25
2022-10-06T06:05:22.800Z,94229.13
2022-10-06T06:08:27.264Z,94233.38
2022-10-06T06:11:32.652Z,94226.22
2022-10-06T06:14:55.196Z,94222.16
2022-10-06T06:18:05.383Z,94222.44
2022-10-06T06:21:11.008Z,94224.66
2022-10-06T06:24:14.978Z,94226.66
2022-10-06T06:27:19.017Z,94213.31
2022-10-06T06:30:23.405Z,94226.44
2022-10-06T06:33:27.952Z,94219.28
2022-10-06T06:36:41.310Z,94212.50
2022-10-06T06:39:47.967Z,94221.28
2022-10-06T06:42:53.970Z,94220.41
2022-10-06T06:46:07.049Z,94219.25
2022-10-06T06:49:32.165Z,94209.88
2022-10-06T06:52:40.112Z,94213.56
2022-10-06T06:55:51.480Z,94209.22
2022-10-06T06:58:58.753Z,94210.13
2022-10-06T07:02:03.965Z,94209.41
2022-10-06T07:05:12.532Z,94209.72
2022-10-06T07:08:20.329Z,94206.91
2022-10-06T07:11:26.025Z,94201.88
2022-10-06T07:14:29.777Z,94211.72
2022-10-06T07:17:52.320Z,94200.22
2022-10-06T07:21:15.446Z,94210.53
2022-10-06T07:24:38.630Z,94203.66
2022-10-06T07:27:44.659Z,94203.44
2022-10-06T07:30:51.480Z,94205.72
2022-10-06T07:33:56.928Z,94201.41
2022-10-06T07:37:04.076Z,94197.00
2022-10-06T07:40:11.776Z,94194.72
2022-10-06T07:43:15.382Z,94196.69
2022-10-06T07:46:21.610Z,94195.75
2022-10-06T07:49:34.072Z,94190.72
2022-10-06T07:52:40.053Z,94188.47
2022-10-06T07:55:46.980Z,94188.97
2022-10-06T07:59:00.102Z,94193.91
2022-10-06T08:02:03.857Z,94198.75
2022-10-06T08:05:09.324Z,94187.28
2022-10-06T08:08:15.410Z,94189.28
2022-10-06T08:11:19.945Z,94189.03
2022-10-06T08:14:25.152Z,94189.75
2022-10-06T08:17:29.271Z,94189.72
2022-10-06T08:20:33.264Z,94194.13
2022-10-06T08:23:40.979Z,94192.00
2022-10-06T08:26:44.906Z,94190.06
2022-10-06T08:29:48.088Z,94191.81
2022-10-06T08:32:51.988Z,94193.91
2022-10-06T08:35:55.529Z,94191.13
2022-10-06T08:38:59.256Z,94193.78
2022-10-06T08:42:03.668Z,94194.94
2022-10-06T08:45:15.179Z,94193.13
2022-10-06T08:48:28.740Z,94190.28
2022-10-06T08:51:51.209Z,94190.56
2022-10-06T08:55:06.658Z,94193.13
2022-10-06T08:58:23.759Z,94181.84
2022-10-06T09:01:34.208Z,94183.44
2022-10-06T09:04:38.200Z,94177.88
2022-10-06T09:07:58.849Z,94176.75
2022-10-06T09:11:26.627Z,94178.25
2022-10-06T09:15:17.537Z,94174.22
2022-10-06T09:22:20.747Z,94174.72
2022-10-06T09:25:29.999Z,94164.94
2022-10-06T09:28:34.152Z,94173.72
2022-10-06T09:31:50.886Z,94171.91
2022-10-06T09:35:03.201Z,94174.44
2022-10-06T09:38:08.996Z,94174.44
2022-10-06T09:41:14.351Z,94172.22
2022-10-06T09:44:27.996Z,94174.06
2022-10-06T09:47:45.581Z,94168.66
2022-10-06T09:51:18.811Z,94178.84
2022-10-06T09:54:22.528Z,94173.78
2022-10-06T09:57:27.973Z,94174.56
2022-10-06T10:00:46.687Z,94172.34
2022-10-06T10:07:30.699Z,94165.38
2022-10-06T10:10:36.223Z,94171.63
2022-10-06T10:13:44.313Z,94169.44
2022-10-06T10:16:53.111Z,94174.19
2022-10-06T10:19:57.357Z,94169.50
2022-10-06T10:23:05.692Z,94176.09
2022-10-06T10:26:39.838Z,94177.91
2022-10-06T10:30:02.774Z,94176.78
2022-10-06T10:33:29.561Z,94172.78
2022-10-06T10:36:45.761Z,94177.91
2022-10-06T10:39:51.874Z,94181.56
2022-10-06T10:43:12.000Z,94184.09
2022-10-06T10:46:25.645Z,94187.00
2022-10-06T10:49:32.624Z,94182.25
2022-10-06T10:53:15.634Z,94185.19
2022-10-06T10:56:22.817Z,94192.53
2022-10-06T10:59:56.348Z,94190.00
2022-10-06T11:03:02.051Z,94202.09
2022-10-06T11:06:35.406Z,94199.50
2022-10-06T11:09:48.622Z,94200.22
2022-10-06T11:13:14.930Z,94198.41
2022-10-06T11:16:35.200Z,94186.69
2022-10-06T11:20:12.033Z,94195.84
2022-10-06T11:23:41.609Z,94196.94
2022-10-06T11:27:08.432Z,94197.00
2022-10-06T11:30:20.306Z,94194.44
2022-10-06T11:33:37.639Z,94196.28
2022-10-06T11:36:57.031Z,94203.94
2022-10-06T11:40:18.944Z,94198.47
2022-10-06T11:43:45.176Z,94198.47
2022-10-06T11:46:57.088Z,94201.03
2022-10-06T11:50:00.182Z,94191.53
2022-10-06T11:53:06.226Z,94194.06
2022-10-06T11:56:18.916Z,94191.16
2022-10-06T11:59:27.991Z,94196.28
2022-10-06T12:02:31.654Z,94194.81
2022-10-06T12:05:55.659Z,94191.19
2022-10-06T12:08:58.021Z,94189.00
2022-10-06T12:12:21.681Z,94190.84
2022-10-06T12:19:39.917Z,94191.59
2022-10-06T12:23:09.006Z,94184.28
2022-10-06T12:26:27.996Z,94187.19
2022-10-06T12:29:46.616Z,94183.19
2022-10-06T12:33:01.037Z,94181.72
2022-10-06T12:36:06.138Z,94176.25
2022-10-06T12:39:25.314Z,94178.81
2022-10-06T12:42:32.087Z,94171.13
2022-10-06T12:45:36.597Z,94172.22
2022-10-06T12:49:05.924Z,94169.31
2022-10-06T12:52:45.041Z,94179.53
2022-10-06T12:56:04.182Z,94176.22
2022-10-06T12:59:23.895Z,94174.69
2022-10-06T13:02:28.610Z,94181.91
2022-10-06T13:05:33.863Z,94185.09
2022-10-06T13:08:39.027Z,94186.81
2022-10-06T13:11:45.466Z,94186.78
2022-10-06T13:14:49.214Z,94182.72
2022-10-06T13:17:56.813Z,94179.78
2022-10-06T13:21:01.905Z,94182.25
2022-10-06T13:24:06.624Z,94184.41
2022-10-06T13:27:18.809Z,94182.19
2022-10-06T13:30:23.235Z,94188.69
2022-10-06T13:33:31.269Z,94180.88
2022-10-06T13:36:47.537Z,94184.09
2022-10-06T13:39:51.540Z,94181.47
2022-10-06T13:42:57.185Z,94187.91
2022-10-06T13:46:01.805Z,94191.22
2022-10-06T13:49:23.023Z,94192.72
2022-10-06T13:52:37.825Z,94195.25
2022-10-06T13:55:41.442Z,94199.78
2022-10-06T13:58:44.815Z,94200.81
2022-10-06T14:01:48.583Z,94190.19
2022-10-06T14:05:24.866Z,94197.78
2022-10-06T14:08:28.767Z,94193.03
2022-10-06T14:11:33.061Z,94199.91
2022-10-06T14:14:36.907Z,94198.78
2022-10-06T14:17:41.900Z,94191.91
2022-10-06T14:20:48.216Z,94192.22
2022-10-06T14:23:56.408Z,94197.25
2022-10-06T14:27:05.761Z,94199.00
2022-10-06T14:30:10.559Z,94202.59
2022-10-06T14:33:13.865Z,94200.00
2022-10-06T14:36:21.353Z,94201.31
2022-10-06T14:39:24.967Z,94204.53
2022-10-06T14:42:28.957Z,94199.72
2022-10-06T14:45:36.501Z,94199.66
2022-10-06T14:48:40.631Z,94194.47
2022-10-06T14:51:45.475Z,94196.88
2022-10-06T14:54:49.802Z,94201.59
2022-10-06T14:57:54.799Z,94204.13
2022-10-06T15:01:05.964Z,94208.81
2022-10-06T15:04:14.963Z,94205.09
2022-10-06T15:07:37.280Z,94204.97
2022-10-06T15:10:40.496Z,94211.47
2022-10-06T15:13:44.745Z,94203.09
2022-10-06T15:16:48.116Z,94203.94
2022-10-06T15:19:51.689Z,94210.50
2022-10-06T15:22:55.136Z,94208.97
2022-10-06T15:26:17.139Z,94203.63
2022-10-06T15:29:21.240Z,94207.22
2022-10-06T15:32:25.314Z,94209.31
2022-10-06T15:35:29.224Z,94212.34
2022-10-06T15:38:37.838Z,94208.59
2022-10-06T15:41:43.433Z,94209.81
2022-10-06T15:44:47.490Z,94206.84
2022-10-06T15:47:53.370Z,94215.47
2022-10-06T15:50:59.034Z,94208.84
2022-10-06T15:54:02.705Z,94206.31
2022-10-06T15:57:10.042Z,94204.53
2022-10-06T16:00:14.136Z,94203.38
2022-10-06T16:03:40.811Z,94211.25
2022-10-06T16:06:50.524Z,94203.50
2022-10-06T16:09:54.561Z,94211.69
2022-10-06T16:12:58.188Z,94208.97
2022-10-06T16:16:01.479Z,94204.66
2022-10-06T16:19:05.097Z,94207.50
2022-10-06T16:22:12.235Z,94209.22
2022-10-06T16:25:15.195Z,94206.22
2022-10-06T16:28:19.161Z,94212.97
2022-10-06T16:31:23.741Z,94217.09
2022-10-06T16:34:28.409Z,94210.50
2022-10-06T16:37:32.125Z,94217.72
2022-10-06T16:40:35.686Z,94220.97
2022-10-06T16:43:41.532Z,94222.44
2022-10-06T16:46:46.215Z,94221.16
2022-10-06T16:49:49.187Z,94218.81
2022-10-06T16:52:53.239Z,94224.78
2022-10-06T16:55:56.759Z,94213.16
2022-10-06T16:59:11.713Z,94219.38
2022-10-06T17:02:15.298Z,94220.00
2022-10-06T17:05:18.972Z,94215.72
2022-10-06T17:08:25.981Z,94211.22
2022-10-06T17:11:29.653Z,94214.50
2022-10-06T17:14:35.451Z,94225.91
2022-10-06T17:17:39.342Z,94225.91
2022-10-06T17:20:42.819Z,94223.78
2022-10-06T17:23:46.570Z,94232.88
2022-10-06T17:26:51.252Z,94235.25
2022-10-06T17:29:54.179Z,94226.47
2022-10-06T17:32:57.911Z,94228.19
2022-10-06T17:36:13.466Z,94230.47
2022-10-06T17:39:18.844Z,94223.19
2022-10-06T17:42:22.560Z,94221.81
2022-10-06T17:45:26.280Z,94218.72
2022-10-06T17:48:30.384Z,94213.97
2022-10-06T17:51:33.976Z,94218.41
2022-10-06T17:54:38.067Z,94221.19
2022-10-06T17:57:41.005Z,94218.44
2022-10-06T18:00:45.027Z,94218.91
2022-10-06T18:03:48.948Z,94212.97
2022-10-06T18:06:54.857Z,94213.72
2022-10-06T18:10:17.532Z,94212.47
2022-10-06T18:13:21.512Z,94212.16
2022-10-06T18:16:28.321Z,94211.06
2022-10-06T18:19:34.272Z,94213.97
2022-10-06T18:22:38.155Z,94216.56
2022-10-06T18:25:41.842Z,94215.75
2022-10-06T18:28:48.226Z,94219.75
2022-10-06T18:31:53.518Z,94222.66
2022-10-06T18:38:21.148Z,94219.19
2022-10-06T18:41:28.702Z,94218.25
2022-10-06T18:44:50.694Z,94225.75
2022-10-06T18:48:11.692Z,94222.72
2022-10-06T18:51:15.354Z,94228.09
2022-10-06T18:54:24.379Z,94220.56
2022-10-06T18:57:28.085Z,94221.81
2022-10-06T19:00:32.937Z,94224.75
2022-10-06T19:03:36.693Z,94226.56
2022-10-06T19:06:41.247Z,94221.72
2022-10-06T19:09:46.838Z,94232.25
2022-10-06T19:12:50.667Z,94231.59
2022-10-06T19:15:53.813Z,94219.53
2022-10-06T19:18:57.979Z,94221.41
2022-10-06T19:22:03.357Z,94215.06
2022-10-06T19:25:07.141Z,94215.06
2022-10-06T19:28:10.841Z,94212.53
2022-10-06T19:31:19.250Z,94217.59
2022-10-06T19:34:23.341Z,94215.69
2022-10-06T19:37:29.247Z,94208.38
2022-10-06T19:40:33.243Z,94218.13
2022-10-06T19:43:36.814Z,94215.22
2022-10-06T19:46:40.751Z,94209.19
2022-10-06T19:49:44.331Z,94215.69
2022-10-06T19:52:47.691Z,94202.81
2022-10-06T19:55:51.223Z,94198.31
2022-10-06T19:58:55.175Z,94203.69
2022-10-06T20:01:58.836Z,94208.75
2022-10-06T20:05:02.143Z,94205.09
2022-10-06T20:08:06.552Z,94203.53
2022-10-06T20:11:16.079Z,94201.97
2022-10-06T20:14:22.470Z,94200.00
2022-10-06T20:17:25.939Z,94204.41
2022-10-06T20:20:29.567Z,94202.44
2022-10-06T20:23:33.878Z,94202.44
2022-10-06T20:26:40.916Z,94208.56
2022-10-06T20:29:44.880Z,94203.91
2022-10-06T20:32:48.579Z,94208.84
2022-10-06T20:35:51.818Z,94208.72
2022-10-06T20:39:13.942Z,94210.03
2022-10-06T20:42:18.656Z,94208.63
2022-10-06T20:45:21.632Z,94212.75
2022-10-06T20:48:30.416Z,94209.06
2022-10-06T20:51:36.559Z,94214.22
2022-10-06T20:54:40.741Z,94208.09
2022-10-06T20:57:44.648Z,94207.91
2022-10-06T21:00:48.673Z,94216.66
2022-10-06T21:03:56.377Z,94205.56
2022-10-06T21:07:00.480Z,94208.41
2022-10-06T21:10:03.732Z,94203.31
2022-10-06T21:13:07.741Z,94203.94
2022-10-06T21:16:13.202Z,94203.75
2022-10-06T21:19:20.076Z,94209.34
2022-10-06T21:22:23.876Z,94206.91
2022-10-06T21:25:27.997Z,94207.19
2022-10-06T21:28:32.662Z,94206.00
2022-10-06T21:31:36.676Z,94212.53
2022-10-06T21:34:40.690Z,94208.44
2022-10-06T21:37:45.473Z,94209.06
2022-10-06T21:40:49.402Z,94207.59
2022-10-06T21:43:57.394Z,94217.50
2022-10-06T21:47:02.978Z,94204.03
2022-10-06T21:50:07.381Z,94211.28
2022-10-06T21:53:11.060Z,94213.47
2022-10-06T21:56:15.177Z,94210.94
2022-10-06T21:59:18.919Z,94207.09
2022-10-06T22:02:22.985Z,94206.31
2022-10-06T22:05:25.990Z,94201.47
2022-10-06T22:08:32.840Z,94209.03
2022-10-06T22:11:38.943Z,94212.00
2022-10-06T22:14:42.444Z,94209.78
2022-10-06T22:17:47.486Z,94207.78
2022-10-06T22:20:51.483Z,94207.56
2022-10-06T22:24:03.566Z,94223.03
2022-10-06T22:27:07.833Z,94228.38
2022-10-06T22:30:11.716Z,94226.72
2022-10-06T22:33:15.030Z,94235.53
2022-10-06T22:36:18.016Z,94223.75
2022-10-06T22:39:22.020Z,94227.25
2022-10-06T22:42:24.960Z,94229.22
2022-10-06T22:45:28.910Z,94226.06
2022-10-06T22:48:32.706Z,94228.41
2022-10-06T22:51:36.374Z,94220.53
2022-10-06T22:54:39.304Z,94230.75
2022-10-06T22:57:43.387Z,94235.66
2022-10-06T23:00:47.211Z,94225.16
2022-10-06T23:03:51.285Z,94238.81
2022-10-06T23:06:54.991Z,94233.47
2022-10-06T23:09:57.915Z,94241.88
2022-10-06T23:13:02.334Z,94237.38
2022-10-06T23:16:08.581Z,94239.91
2022-10-06T23:19:12.456Z,94242.75
2022-10-06T23:22:16.004Z,94246.00
2022-10-06T23:25:23.753Z,94245.56
2022-10-06T23:28:30.092Z,94251.16
2022-10-06T23:31:34.264Z,94252.44
2022-10-06T23:34:37.269Z,94248.22
2022-10-06T23:37:41.742Z,94249.81
2022-10-06T23:40:45.755Z,94251.91
2022-10-06T23:43:49.586Z,94250.63
2022-10-06T23:46:52.476Z,94247.47
2022-10-06T23:49:55.967Z,94250.59
2022-10-06T23:52:59.016Z,94256.91
2022-10-06T23:56:03.528Z,94255.44
2022-10-06T23:59:06.659Z,94262.28
